createdAt,value
2019-05-17T00:00:59.134Z,9.43
2019-05-17T00:03:30.558Z,9.44
2019-05-17T00:06:01.943Z,9.36
2019-05-17T00:08:34.947Z,9.30
2019-05-17T00:11:06.905Z,9.24
2019-05-17T00:13:38.904Z,9.25
2019-05-17T00:16:12.190Z,9.26
2019-05-17T00:18:43.747Z,9.30
2019-05-17T00:21:16.946Z,9.26
2019-05-17T00:23:48.301Z,9.28
2019-05-17T00:26:19.642Z,9.34
2019-05-17T00:28:50.994Z,9.30
2019-05-17T00:31:22.358Z,9.35
2019-05-17T00:33:53.793Z,9.33
2019-05-17T00:36:26.959Z,9.21
2019-05-17T00:38:59.726Z,9.22
2019-05-17T00:41:31.921Z,9.30
2019-05-17T00:44:03.349Z,9.36
2019-05-17T00:46:37.102Z,9.27
2019-05-17T00:49:07.883Z,9.36
2019-05-17T00:51:39.177Z,9.37
2019-05-17T00:54:10.555Z,9.28
2019-05-17T00:56:41.858Z,9.30
2019-05-17T00:59:13.244Z,9.37
2019-05-17T01:01:46.764Z,9.38
2019-05-17T01:04:17.688Z,9.42
2019-05-17T01:06:49.109Z,9.38
2019-05-17T01:09:21.313Z,9.32
2019-05-17T01:11:52.649Z,9.32
2019-05-17T01:14:23.934Z,9.32
2019-05-17T01:16:56.526Z,9.38
2019-05-17T01:19:28.106Z,9.40
2019-05-17T01:21:59.389Z,9.38
2019-05-17T01:24:30.766Z,9.41
2019-05-17T01:27:02.043Z,9.43
2019-05-17T01:29:33.399Z,9.42
2019-05-17T01:32:06.858Z,9.39
2019-05-17T01:34:37.815Z,9.44
2019-05-17T01:37:09.215Z,9.40
2019-05-17T01:39:40.464Z,9.37
2019-05-17T01:42:11.895Z,9.35
2019-05-17T01:44:43.302Z,9.33
2019-05-17T01:47:16.297Z,9.37
2019-05-17T01:49:47.646Z,9.35
2019-05-17T01:52:18.959Z,9.40
2019-05-17T01:54:50.309Z,9.35
2019-05-17T01:57:21.939Z,9.28
2019-05-17T01:59:53.297Z,9.33
2019-05-17T02:02:27.030Z,9.39
2019-05-17T02:04:58.606Z,9.47
2019-05-17T02:07:30.007Z,9.50
2019-05-17T02:10:01.555Z,9.41
2019-05-17T02:12:33.137Z,9.38
2019-05-17T02:15:08.178Z,9.34
2019-05-17T02:17:39.659Z,9.29
2019-05-17T02:20:16.847Z,9.38
2019-05-17T02:22:47.641Z,9.36
2019-05-17T02:25:20.494Z,9.34
2019-05-17T02:27:52.375Z,9.40
2019-05-17T02:30:23.856Z,9.34
2019-05-17T02:32:55.832Z,9.38
2019-05-17T02:35:27.309Z,9.42
2019-05-17T02:37:58.664Z,9.33
2019-05-17T02:40:33.524Z,9.30
2019-05-17T02:43:03.617Z,9.30
2019-05-17T02:45:35.145Z,9.28
2019-05-17T02:48:06.547Z,9.27
2019-05-17T02:50:38.965Z,9.28
2019-05-17T02:53:13.089Z,9.26
2019-05-17T02:55:43.698Z,9.25
2019-05-17T02:58:15.106Z,9.28
2019-05-17T03:00:46.580Z,9.36
2019-05-17T03:03:17.915Z,9.35
2019-05-17T03:05:53.317Z,9.35
2019-05-17T03:08:23.830Z,9.38
2019-05-17T03:10:55.290Z,9.32
2019-05-17T03:13:26.580Z,9.36
2019-05-17T03:15:57.864Z,9.39
2019-05-17T03:18:29.214Z,9.53
2019-05-17T03:21:03.774Z,9.51
2019-05-17T03:23:36.499Z,9.49
2019-05-17T03:26:07.937Z,9.41
2019-05-17T03:28:42.459Z,9.35
2019-05-17T03:31:16.525Z,9.32
2019-05-17T03:33:46.474Z,9.30
2019-05-17T03:36:18.255Z,9.25
2019-05-17T03:38:49.797Z,9.25
2019-05-17T03:41:27.930Z,9.27
2019-05-17T03:43:54.317Z,9.24
2019-05-17T03:46:25.644Z,9.27
2019-05-17T03:48:56.947Z,9.25
2019-05-17T03:51:28.433Z,9.24
2019-05-17T03:54:02.448Z,9.27
2019-05-17T03:56:33.153Z,9.29
2019-05-17T03:59:04.539Z,9.34
2019-05-17T04:01:35.868Z,9.37
2019-05-17T04:04:07.303Z,9.35
2019-05-17T04:06:38.519Z,9.35
2019-05-17T04:09:13.417Z,9.33
2019-05-17T04:11:43.134Z,9.28
2019-05-17T04:14:14.680Z,9.27
2019-05-17T04:16:47.085Z,9.32
2019-05-17T04:19:18.400Z,9.36
2019-05-17T04:21:53.368Z,9.34
2019-05-17T04:24:23.235Z,9.36
2019-05-17T04:26:55.260Z,9.41
2019-05-17T04:29:26.645Z,9.53
2019-05-17T04:31:58.237Z,9.53
2019-05-17T04:34:35.396Z,9.55
2019-05-17T04:37:13.446Z,9.58
2019-05-17T04:39:46.555Z,9.52
2019-05-17T04:42:17.880Z,9.48
2019-05-17T04:44:52.428Z,9.51
2019-05-17T04:47:24.166Z,9.54
2019-05-17T04:49:55.662Z,9.57
2019-05-17T04:52:27.389Z,9.62
2019-05-17T04:54:58.691Z,9.54
2019-05-17T04:57:32.515Z,9.63
2019-05-17T05:00:04.352Z,9.65
2019-05-17T05:02:36.861Z,9.67
2019-05-17T05:05:08.652Z,9.70
2019-05-17T05:07:42.866Z,9.74
2019-05-17T05:10:14.154Z,9.71
2019-05-17T05:12:45.675Z,9.74
2019-05-17T05:15:22.553Z,9.79
2019-05-17T05:17:53.551Z,9.90
2019-05-17T05:20:24.791Z,10.01
2019-05-17T05:22:56.805Z,10.02
2019-05-17T05:25:28.123Z,9.89
2019-05-17T05:27:59.425Z,9.96
2019-05-17T05:30:31.990Z,10.04
2019-05-17T05:33:03.385Z,10.15
2019-05-17T05:35:34.692Z,10.22
2019-05-17T05:38:06.007Z,10.29
2019-05-17T05:40:37.314Z,10.35
2019-05-17T05:43:08.702Z,10.30
2019-05-17T05:45:41.748Z,10.28
2019-05-17T05:48:13.294Z,10.35
2019-05-17T05:50:44.738Z,10.46
2019-05-17T05:53:16.141Z,10.51
2019-05-17T05:55:47.555Z,10.55
2019-05-17T05:58:18.799Z,10.62
2019-05-17T06:00:52.903Z,10.69
2019-05-17T06:03:25.528Z,10.83
2019-05-17T06:05:56.494Z,10.89
2019-05-17T06:08:27.997Z,10.98
2019-05-17T06:11:01.944Z,11.13
2019-05-17T06:13:32.862Z,11.17
2019-05-17T06:16:04.411Z,11.28
2019-05-17T06:18:35.788Z,11.33
2019-05-17T06:21:07.115Z,11.43
2019-05-17T06:23:38.504Z,11.54
2019-05-17T06:26:12.152Z,11.45
2019-05-17T06:28:43.984Z,11.45
2019-05-17T06:31:15.444Z,11.62
2019-05-17T06:33:46.691Z,11.57
2019-05-17T06:36:17.941Z,11.60
2019-05-17T06:38:49.415Z,11.74
2019-05-17T06:41:21.538Z,11.74
2019-05-17T06:43:52.853Z,11.95
2019-05-17T06:46:25.059Z,12.12
2019-05-17T06:48:56.300Z,12.12
2019-05-17T06:51:27.555Z,12.24
2019-05-17T06:53:58.818Z,12.28
2019-05-17T06:56:32.056Z,12.33
2019-05-17T06:59:03.272Z,12.50
2019-05-17T07:01:34.588Z,12.83
2019-05-17T07:04:06.023Z,13.04
2019-05-17T07:06:37.439Z,13.11
2019-05-17T07:09:10.042Z,13.09
2019-05-17T07:11:42.808Z,13.17
2019-05-17T07:14:14.208Z,13.28
2019-05-17T07:16:46.156Z,13.34
2019-05-17T07:19:19.637Z,13.48
2019-05-17T07:21:50.418Z,13.49
2019-05-17T07:24:21.696Z,13.50
2019-05-17T07:26:52.968Z,13.61
2019-05-17T07:29:24.206Z,13.85
2019-05-17T07:31:55.562Z,14.23
2019-05-17T07:34:26.801Z,14.20
2019-05-17T07:36:59.736Z,14.31
2019-05-17T07:39:31.129Z,14.12
2019-05-17T07:42:02.513Z,14.20
2019-05-17T07:44:33.834Z,14.41
2019-05-17T07:47:06.029Z,14.59
2019-05-17T07:49:40.328Z,14.91
2019-05-17T07:52:10.543Z,15.25
2019-05-17T07:54:41.808Z,15.32
2019-05-17T07:57:13.081Z,15.05
2019-05-17T07:59:44.373Z,15.21
2019-05-17T08:02:15.746Z,15.44
2019-05-17T08:04:47.112Z,15.60
2019-05-17T08:07:19.667Z,15.76
2019-05-17T08:09:51.049Z,15.84
2019-05-17T08:12:22.466Z,16.03
2019-05-17T08:14:53.703Z,15.98
2019-05-17T08:17:25.000Z,15.91
2019-05-17T08:19:56.269Z,16.04
2019-05-17T08:22:29.393Z,16.22
2019-05-17T08:25:00.681Z,16.41
2019-05-17T08:27:31.994Z,16.61
2019-05-17T08:30:04.648Z,16.55
2019-05-17T08:32:35.972Z,16.68
2019-05-17T08:35:07.698Z,16.71
2019-05-17T08:37:42.423Z,16.77
2019-05-17T08:40:15.209Z,16.84
2019-05-17T08:42:45.430Z,16.63
2019-05-17T08:45:16.910Z,16.72
2019-05-17T08:47:50.000Z,16.67
2019-05-17T08:50:21.609Z,16.77
2019-05-17T08:52:52.849Z,16.99
2019-05-17T08:55:24.121Z,17.02
2019-05-17T08:57:55.679Z,17.36
2019-05-17T09:00:27.136Z,17.55
2019-05-17T09:03:00.081Z,17.47
2019-05-17T09:05:31.475Z,17.74
2019-05-17T09:08:02.756Z,17.76
2019-05-17T09:10:34.350Z,17.51
2019-05-17T09:13:06.561Z,17.75
2019-05-17T09:15:39.912Z,18.10
2019-05-17T09:18:11.022Z,17.93
2019-05-17T09:20:42.265Z,17.97
2019-05-17T09:23:13.509Z,18.11
2019-05-17T09:25:44.847Z,17.93
2019-05-17T09:28:16.162Z,18.07
2019-05-17T09:30:47.531Z,18.29
2019-05-17T09:33:19.224Z,18.13
2019-05-17T09:35:50.619Z,18.17
2019-05-17T09:38:21.851Z,18.34
2019-05-17T09:40:53.204Z,17.99
2019-05-17T09:43:24.614Z,17.77
2019-05-17T09:45:55.866Z,17.74
2019-05-17T09:48:27.128Z,17.94
2019-05-17T09:50:59.936Z,17.72
2019-05-17T09:53:31.477Z,17.80
2019-05-17T09:56:02.719Z,17.73
2019-05-17T09:58:34.125Z,17.68
2019-05-17T10:01:05.505Z,17.75
2019-05-17T10:03:36.792Z,17.83
2019-05-17T10:06:09.625Z,18.23
2019-05-17T10:08:41.166Z,18.48
2019-05-17T10:11:12.538Z,18.76
2019-05-17T10:13:47.133Z,18.95
2019-05-17T10:16:20.485Z,18.80
2019-05-17T10:18:51.866Z,18.78
2019-05-17T10:21:25.795Z,18.92
2019-05-17T10:23:56.455Z,19.14
2019-05-17T10:26:30.365Z,19.02
2019-05-17T10:29:02.083Z,19.32
2019-05-17T10:31:33.503Z,19.66
2019-05-17T10:34:04.865Z,19.40
2019-05-17T10:36:36.573Z,19.44
2019-05-17T10:39:09.924Z,19.23
2019-05-17T10:41:41.503Z,19.74
2019-05-17T10:44:12.735Z,20.37
2019-05-17T10:46:44.107Z,20.70
2019-05-17T10:49:15.484Z,20.77
2019-05-17T10:51:49.420Z,20.97
2019-05-17T10:54:20.759Z,21.12
2019-05-17T10:56:52.271Z,21.34
2019-05-17T10:59:23.499Z,21.33
2019-05-17T11:01:54.820Z,21.10
2019-05-17T11:04:26.163Z,21.24
2019-05-17T11:06:59.618Z,21.50
2019-05-17T11:09:31.449Z,21.61
2019-05-17T11:12:03.266Z,21.81
2019-05-17T11:14:48.971Z,21.78
2019-05-17T11:17:07.478Z,21.28
2019-05-17T11:19:38.726Z,21.53
2019-05-17T11:22:10.003Z,22.23
2019-05-17T11:24:41.251Z,22.34
2019-05-17T11:27:13.382Z,21.95
2019-05-17T11:29:44.665Z,22.52
2019-05-17T11:32:16.013Z,22.72
2019-05-17T11:34:47.358Z,22.28
2019-05-17T11:37:18.684Z,21.97
2019-05-17T11:39:52.024Z,21.80
2019-05-17T11:42:23.436Z,21.80
2019-05-17T11:44:55.651Z,22.02
2019-05-17T11:47:26.959Z,22.39
2019-05-17T11:49:58.347Z,22.01
2019-05-17T11:52:29.703Z,21.75
2019-05-17T11:55:00.996Z,21.77
2019-05-17T11:57:32.426Z,21.83
2019-05-17T12:00:08.210Z,22.18
2019-05-17T12:02:39.462Z,22.45
2019-05-17T12:05:10.852Z,22.20
2019-05-17T12:07:42.142Z,22.30
2019-05-17T12:10:13.756Z,22.41
2019-05-17T12:12:44.995Z,22.33
2019-05-17T12:15:16.466Z,22.31
2019-05-17T12:17:47.784Z,22.62
2019-05-17T12:20:19.617Z,22.70
2019-05-17T12:22:50.892Z,22.56
2019-05-17T12:25:23.219Z,22.27
2019-05-17T12:27:54.779Z,22.06
2019-05-17T12:30:26.540Z,22.09
2019-05-17T12:32:58.685Z,21.88
2019-05-17T12:35:30.056Z,22.36
2019-05-17T12:38:01.427Z,22.66
2019-05-17T12:40:32.880Z,22.93
2019-05-17T12:43:04.203Z,22.81
2019-05-17T12:45:35.600Z,22.70
2019-05-17T12:48:07.161Z,22.89
2019-05-17T12:50:38.562Z,23.09
2019-05-17T12:53:10.055Z,23.37
2019-05-17T12:55:41.360Z,23.50
2019-05-17T12:58:12.647Z,23.90
2019-05-17T13:00:43.935Z,23.86
2019-05-17T13:03:15.267Z,24.00
2019-05-17T13:05:52.466Z,23.88
2019-05-17T13:08:23.868Z,23.57
2019-05-17T13:10:55.175Z,23.19
2019-05-17T13:13:30.465Z,23.05
2019-05-17T13:16:16.743Z,22.83
2019-05-17T13:18:42.693Z,23.06
2019-05-17T13:21:14.101Z,23.14
2019-05-17T13:23:50.210Z,23.43
2019-05-17T13:26:22.569Z,23.33
2019-05-17T13:28:56.136Z,21.96
2019-05-17T13:31:27.472Z,21.89
2019-05-17T13:33:59.050Z,21.96
2019-05-17T13:36:30.366Z,22.34
2019-05-17T13:39:01.877Z,23.10
2019-05-17T13:41:35.886Z,23.64
2019-05-17T13:44:08.189Z,23.42
2019-05-17T13:46:39.421Z,23.42
2019-05-17T13:49:10.779Z,24.09
2019-05-17T13:51:42.181Z,23.76
2019-05-17T13:54:13.526Z,23.71
2019-05-17T13:56:44.866Z,23.51
2019-05-17T13:59:16.291Z,23.50
2019-05-17T14:01:47.767Z,22.94
2019-05-17T14:04:19.070Z,22.58
2019-05-17T14:06:50.619Z,22.61
2019-05-17T14:09:21.863Z,23.04
2019-05-17T14:11:53.228Z,23.39
2019-05-17T14:14:24.510Z,23.80
2019-05-17T14:16:55.981Z,23.85
2019-05-17T14:19:28.929Z,24.09
2019-05-17T14:22:00.494Z,24.24
2019-05-17T14:24:31.858Z,24.67
2019-05-17T14:27:03.283Z,24.65
2019-05-17T14:29:34.521Z,24.41
2019-05-17T14:32:06.167Z,24.72
2019-05-17T14:34:37.726Z,24.60
2019-05-17T14:37:09.248Z,24.53
2019-05-17T14:39:40.522Z,24.47
2019-05-17T14:42:11.812Z,24.42
2019-05-17T14:44:43.047Z,24.35
2019-05-17T14:47:14.346Z,24.68
2019-05-17T14:49:45.743Z,25.06
2019-05-17T14:52:17.030Z,25.09
2019-05-17T14:54:48.258Z,25.49
2019-05-17T14:57:20.507Z,26.08
2019-05-17T14:59:51.980Z,26.35
2019-05-17T15:02:23.333Z,26.47
2019-05-17T15:04:54.633Z,26.24
2019-05-17T15:07:26.084Z,26.54
2019-05-17T15:09:57.410Z,26.59
2019-05-17T15:12:29.119Z,26.81
2019-05-17T15:15:00.699Z,26.40
2019-05-17T15:17:34.857Z,26.60
2019-05-17T15:20:06.701Z,26.11
2019-05-17T15:22:38.062Z,26.24
2019-05-17T15:25:09.701Z,26.58
2019-05-17T15:27:40.972Z,25.92
2019-05-17T15:30:12.733Z,25.58
2019-05-17T15:32:44.095Z,26.03
2019-05-17T15:35:15.410Z,26.33
2019-05-17T15:37:46.838Z,26.49
2019-05-17T15:40:18.153Z,26.49
2019-05-17T15:42:49.649Z,26.73
2019-05-17T15:45:21.010Z,26.92
2019-05-17T15:47:52.466Z,26.65
2019-05-17T15:50:23.848Z,26.04
2019-05-17T15:52:55.213Z,26.28
2019-05-17T15:55:26.450Z,26.22
2019-05-17T15:57:57.816Z,26.02
2019-05-17T16:00:29.187Z,25.75
2019-05-17T16:03:00.613Z,25.49
2019-05-17T16:05:32.011Z,25.35
2019-05-17T16:08:03.357Z,25.20
2019-05-17T16:10:34.617Z,25.54
2019-05-17T16:13:06.057Z,26.01
2019-05-17T16:15:37.498Z,25.73
2019-05-17T16:18:08.785Z,25.69
2019-05-17T16:20:40.070Z,26.10
2019-05-17T16:23:11.457Z,26.49
2019-05-17T16:25:42.692Z,26.54
2019-05-17T16:28:14.166Z,26.74
2019-05-17T16:30:47.121Z,26.86
2019-05-17T16:33:18.483Z,26.80
2019-05-17T16:35:49.784Z,26.83
2019-05-17T16:38:21.065Z,26.98
2019-05-17T16:40:52.392Z,27.25
2019-05-17T16:43:23.728Z,27.06
2019-05-17T16:45:55.029Z,26.96
2019-05-17T16:48:26.492Z,26.73
2019-05-17T16:50:57.792Z,26.38
2019-05-17T16:53:29.164Z,26.38
2019-05-17T16:56:00.402Z,26.76
2019-05-17T16:58:32.193Z,26.33
2019-05-17T17:01:03.860Z,26.02
2019-05-17T17:03:44.423Z,26.17
2019-05-17T17:06:10.509Z,26.33
2019-05-17T17:08:43.053Z,26.13
2019-05-17T17:11:14.426Z,25.66
2019-05-17T17:13:45.874Z,25.34
2019-05-17T17:16:17.201Z,25.43
2019-05-17T17:18:48.552Z,25.03
2019-05-17T17:21:19.786Z,24.95
2019-05-17T17:23:51.405Z,24.72
2019-05-17T17:26:22.780Z,24.82
2019-05-17T17:28:55.791Z,24.73
2019-05-17T17:31:27.246Z,24.32
2019-05-17T17:34:00.810Z,24.07
2019-05-17T17:36:33.022Z,23.63
2019-05-17T17:39:06.204Z,23.24
2019-05-17T17:41:37.525Z,23.05
2019-05-17T17:44:09.183Z,23.06
2019-05-17T17:46:40.625Z,22.99
2019-05-17T17:49:12.137Z,22.76
2019-05-17T17:51:43.431Z,22.20
2019-05-17T17:54:14.862Z,22.11
2019-05-17T17:56:46.302Z,22.20
2019-05-17T17:59:17.763Z,22.09
2019-05-17T18:01:49.083Z,22.11
2019-05-17T18:04:20.734Z,22.14
2019-05-17T18:06:52.032Z,21.86
2019-05-17T18:09:23.480Z,21.56
2019-05-17T18:11:54.910Z,21.69
2019-05-17T18:14:26.360Z,21.65
2019-05-17T18:58:39.267Z,20.22
2019-05-17T19:01:10.534Z,20.31
2019-05-17T19:03:42.080Z,20.24
2019-05-17T19:06:13.673Z,20.26
2019-05-17T19:08:45.059Z,20.38
2019-05-17T19:11:16.508Z,20.44
2019-05-17T19:13:48.025Z,20.49
2019-05-17T19:16:20.445Z,20.49
2019-05-17T19:18:51.789Z,20.40
2019-05-17T19:21:23.199Z,20.28
2019-05-17T19:23:54.550Z,20.24
2019-05-17T19:26:26.233Z,20.23
2019-05-17T19:28:57.730Z,20.01
2019-05-17T19:31:29.930Z,20.01
2019-05-17T19:34:01.596Z,19.89
2019-05-17T19:36:33.113Z,19.83
2019-05-17T19:39:05.616Z,19.67
2019-05-17T19:41:37.475Z,19.42
2019-05-17T19:44:08.759Z,19.45
2019-05-17T19:46:40.147Z,19.45
2019-05-17T19:49:11.546Z,19.36
2019-05-17T19:51:43.163Z,19.36
2019-05-17T19:54:14.520Z,19.37
2019-05-17T19:56:46.211Z,19.30
2019-05-17T19:59:17.489Z,19.12
2019-05-17T20:10:31.088Z,18.92
2019-05-17T20:13:05.227Z,18.97
2019-05-17T20:15:36.699Z,18.89
2019-05-17T20:18:08.158Z,18.78
2019-05-17T20:20:39.804Z,18.75
2019-05-17T20:23:11.201Z,18.72
2019-05-17T20:25:42.823Z,18.58
2019-05-17T20:28:14.260Z,18.49
2019-05-17T20:30:45.916Z,18.40
2019-05-17T20:33:19.565Z,18.22
2019-05-17T20:35:51.050Z,17.88
2019-05-17T20:38:22.844Z,17.65
2019-05-17T20:41:13.379Z,17.49
2019-05-17T20:43:45.317Z,17.40
2019-05-17T20:46:16.898Z,17.33
2019-05-17T20:48:48.273Z,17.19
2019-05-17T20:51:19.741Z,17.13
2019-05-17T20:53:51.343Z,17.06
2019-05-17T20:56:32.499Z,17.08
2019-05-17T20:58:55.827Z,17.07
2019-05-17T21:01:27.307Z,17.04
2019-05-17T21:03:58.981Z,16.87
2019-05-17T21:06:31.475Z,16.73
2019-05-17T21:09:03.007Z,16.60
2019-05-17T21:11:35.399Z,16.66
2019-05-17T21:14:06.966Z,16.63
2019-05-17T21:16:38.337Z,16.40
2019-05-17T21:19:09.767Z,16.22
2019-05-17T21:21:41.107Z,16.12
2019-05-17T21:24:12.499Z,16.06
2019-05-17T21:26:43.807Z,16.04
2019-05-17T21:29:15.138Z,15.99
2019-05-17T21:31:46.449Z,15.89
2019-05-17T21:34:17.818Z,15.87
2019-05-17T21:36:50.406Z,15.92
2019-05-17T21:39:21.996Z,15.95
2019-05-17T21:41:53.469Z,15.88
2019-05-17T21:44:24.768Z,15.81
2019-05-17T21:47:04.195Z,15.77
2019-05-17T21:49:29.117Z,15.74
2019-05-17T21:52:00.382Z,15.72
2019-05-17T21:54:31.805Z,15.53
2019-05-17T21:57:03.137Z,15.26
2019-05-17T21:59:34.526Z,15.14
2019-05-17T22:02:06.137Z,15.15
2019-05-17T22:04:37.588Z,15.11
2019-05-17T22:07:09.986Z,15.02
2019-05-17T22:09:41.470Z,14.92
2019-05-17T22:12:14.753Z,14.82
2019-05-17T22:14:46.208Z,14.70
2019-05-17T22:17:17.641Z,14.66
2019-05-17T22:19:48.997Z,14.79
2019-05-17T22:22:20.319Z,14.86
2019-05-17T22:24:51.719Z,14.93
2019-05-17T22:27:23.192Z,14.84
2019-05-17T22:29:54.468Z,14.70
2019-05-17T22:32:25.833Z,14.72
2019-05-17T22:34:57.756Z,14.76
2019-05-17T22:37:29.172Z,14.87
2019-05-17T22:40:00.603Z,14.85
2019-05-17T22:42:32.167Z,14.64
2019-05-17T22:45:03.871Z,14.55
2019-05-17T22:47:35.267Z,14.38
2019-05-17T22:50:08.048Z,14.31
2019-05-17T22:52:39.463Z,14.28
2019-05-17T22:55:11.206Z,14.34
2019-05-17T22:57:42.670Z,14.29
2019-05-17T23:00:14.373Z,14.19
2019-05-17T23:02:45.907Z,14.06
2019-05-17T23:05:21.899Z,13.91
2019-05-17T23:07:50.234Z,13.72
2019-05-17T23:10:21.633Z,13.65
2019-05-17T23:12:52.982Z,13.57
2019-05-17T23:15:25.939Z,13.50
2019-05-17T23:17:57.480Z,13.39
2019-05-17T23:20:28.888Z,13.32
2019-05-17T23:23:00.148Z,13.28
2019-05-17T23:25:31.525Z,13.22
2019-05-17T23:28:02.806Z,13.18
2019-05-17T23:30:34.325Z,13.13
2019-05-17T23:33:05.780Z,13.09
2019-05-17T23:35:37.208Z,13.08
2019-05-17T23:38:08.653Z,13.07
2019-05-17T23:40:40.003Z,13.09
2019-05-17T23:43:11.328Z,13.09
2019-05-17T23:45:42.583Z,13.09
2019-05-17T23:48:14.011Z,13.11
2019-05-17T23:50:45.289Z,13.05
2019-05-17T23:53:16.651Z,13.01
2019-05-17T23:55:47.952Z,13.01
2019-05-17T23:58:19.220Z,12.98
